Time;durP1;ratioP1;P1;durP2;ratioP2;P2;SDS_P1;SDS_P2;PMS_P1;PMS_P2;Temp;Humidity;BMP_temperature;BMP_pressure;BME280_temperature;BME280_humidity;BME280_pressure;Samples;Min_cycle;Max_cycle;Signal;HPM_P1;HPM_P2
2023/05/11 00:02:24;;;;;;;3.83;0.57;;;15.90;60.90;;;;;;4978144;28;20065;-46
2023/05/11 00:04:51;;;;;;;0.57;0.57;;;15.90;61.70;;;;;;4978677;28;20391;-47
2023/05/11 00:07:18;;;;;;;0.32;0.30;;;15.90;60.60;;;;;;4977723;28;20057;-45
2023/05/11 00:09:46;;;;;;;0.55;0.40;;;15.90;60.40;;;;;;4980854;28;20058;-43
2023/05/11 00:12:13;;;;;;;0.38;0.32;;;15.90;60.30;;;;;;4978239;28;20525;-43
2023/05/11 00:14:40;;;;;;;0.47;0.30;;;15.80;60.20;;;;;;4979517;28;20073;-43
2023/05/11 00:17:09;;;;;;;1.00;0.32;;;15.80;60.10;;;;;;4977603;28;20356;-44
2023/05/11 00:19:37;;;;;;;3.03;0.28;;;15.80;60.00;;;;;;4979008;28;20062;-43
2023/05/11 00:22:04;;;;;;;0.20;0.20;;;15.80;60.00;;;;;;4981282;28;20447;-47
2023/05/11 00:24:31;;;;;;;0.68;0.25;;;15.80;59.90;;;;;;4981436;28;20058;-49
2023/05/11 00:26:58;;;;;;;0.22;0.20;;;15.80;59.90;;;;;;4977225;28;20050;-48
2023/05/11 00:29:25;;;;;;;1.85;0.35;;;15.80;59.90;;;;;;4977848;28;20368;-47
2023/05/11 00:31:52;;;;;;;4.00;0.50;;;15.70;59.90;;;;;;4977777;28;20051;-44
2023/05/11 00:34:21;;;;;;;2.53;0.45;;;15.70;59.90;;;;;;4979126;28;20054;-46
2023/05/11 00:36:48;;;;;;;3.05;0.55;;;15.80;60.00;;;;;;4975367;28;20973;-44
2023/05/11 00:39:17;;;;;;;0.98;0.50;;;15.70;60.00;;;;;;4980189;28;20058;-44
2023/05/11 00:41:44;;;;;;;1.17;0.30;;;15.70;60.00;;;;;;4977330;28;20053;-48
2023/05/11 00:44:11;;;;;;;3.92;0.30;;;15.70;60.10;;;;;;4978172;28;20442;-47
2023/05/11 00:46:39;;;;;;;0.50;0.40;;;15.70;60.30;;;;;;4975688;28;20054;-45
2023/05/11 00:49:06;;;;;;;1.67;0.50;;;15.70;60.40;;;;;;4981030;28;20061;-45
2023/05/11 00:51:36;;;;;;;1.10;0.30;;;15.70;60.50;;;;;;4980283;28;20061;-45
2023/05/11 00:54:03;;;;;;;0.55;0.25;;;15.70;60.50;;;;;;4974042;28;20050;-45
2023/05/11 00:56:30;;;;;;;0.98;0.40;;;15.70;60.50;;;;;;4977232;28;20058;-45
2023/05/11 00:58:58;;;;;;;0.70;0.32;;;15.70;60.60;;;;;;4978812;28;20049;-44
2023/05/11 01:01:26;;;;;;;0.47;0.30;;;15.70;60.60;;;;;;4976696;28;20058;-45
2023/05/11 01:03:53;;;;;;;0.80;0.30;;;15.60;60.50;;;;;;5010262;23;20064;-48
2023/05/11 01:06:30;;;;;;;2.35;0.38;;;15.70;60.50;;;;;;5021400;28;20066;-45
2023/05/11 01:09:04;;;;;;;1.08;0.30;;;15.60;60.10;;;;;;5024021;28;20045;-43
2023/05/11 01:11:52;;;;;;;1.33;0.38;;;15.60;59.40;;;;;;5021544;28;20547;-47
2023/05/11 01:14:26;;;;;;;6.07;0.40;;;15.60;59.40;;;;;;5021261;28;20050;-43
2023/05/11 01:17:00;;;;;;;0.65;0.38;;;15.50;59.50;;;;;;5020008;28;21376;-49
2023/05/11 01:19:41;;;;;;;0.30;0.30;;;15.40;59.60;;;;;;5020738;28;20465;-45
2023/05/11 01:22:21;;;;;;;2.05;0.35;;;15.40;59.80;;;;;;5021234;28;20053;-47
2023/05/11 01:25:06;;;;;;;7.50;0.55;;;15.30;59.90;;;;;;5021831;28;20049;-46
2023/05/11 01:27:53;;;;;;;0.60;0.40;;;15.30;60.40;;;;;;5020875;28;20503;-44
2023/05/11 01:30:32;;;;;;;0.32;0.32;;;15.20;60.50;;;;;;5020713;28;20065;-47
2023/05/11 01:33:05;;;;;;;3.13;0.30;;;15.20;60.70;;;;;;5022290;28;20041;-47
2023/05/11 01:35:35;;;;;;;0.40;0.32;;;15.20;60.90;;;;;;5022309;28;20057;-45
2023/05/11 01:38:05;;;;;;;0.98;0.35;;;15.20;61.10;;;;;;5022317;28;20519;-44
2023/05/11 01:40:35;;;;;;;0.55;0.50;;;15.20;61.10;;;;;;5020977;28;20388;-43
2023/05/11 01:43:07;;;;;;;0.70;0.38;;;15.10;61.00;;;;;;5021223;28;20049;-45
2023/05/11 01:45:39;;;;;;;0.60;0.25;;;15.20;61.10;;;;;;5019733;28;20065;-46
2023/05/11 01:48:19;;;;;;;0.63;0.63;;;15.20;61.30;;;;;;5020327;28;20046;-43
2023/05/11 01:50:49;;;;;;;0.70;0.38;;;15.20;61.50;;;;;;5021588;28;20056;-45
2023/05/11 01:53:18;;;;;;;0.30;0.28;;;15.20;61.50;;;;;;5022551;28;20049;-46
2023/05/11 01:55:47;;;;;;;0.30;0.30;;;15.20;61.60;;;;;;5018984;28;20053;-45
2023/05/11 01:58:16;;;;;;;0.43;0.40;;;15.20;61.60;;;;;;5021019;28;20053;-45
2023/05/11 02:00:47;;;;;;;1.88;0.43;;;15.20;61.60;;;;;;5021085;28;20053;-51
2023/05/11 02:03:16;;;;;;;0.40;0.30;;;15.20;61.60;;;;;;5021588;28;20072;-44
2023/05/11 02:05:45;;;;;;;0.30;0.30;;;15.20;61.50;;;;;;5016337;28;20135;-45
2023/05/11 02:08:14;;;;;;;1.08;0.40;;;15.20;61.50;;;;;;5016801;28;20054;-47
2023/05/11 02:10:42;;;;;;;0.50;0.30;;;15.20;61.50;;;;;;5015731;28;20065;-48
2023/05/11 02:13:10;;;;;;;4.57;0.57;;;15.20;61.60;;;;;;5015896;28;20528;-49
2023/05/11 02:15:40;;;;;;;1.95;0.57;;;15.20;61.50;;;;;;5013806;28;20045;-42
2023/05/11 02:18:13;;;;;;;0.90;0.40;;;15.20;61.40;;;;;;5016410;28;20053;-48
2023/05/11 02:20:43;;;;;;;0.98;0.40;;;15.20;61.40;;;;;;5017449;28;20645;-43
2023/05/11 02:23:11;;;;;;;0.65;0.35;;;15.20;61.30;;;;;;5016069;28;20481;-45
2023/05/11 02:25:40;;;;;;;1.25;0.50;;;15.20;61.20;;;;;;5017847;28;20053;-43
2023/05/11 02:28:08;;;;;;;0.20;0.20;;;15.20;61.20;;;;;;5016370;28;20057;-48
2023/05/11 02:30:44;;;;;;;1.17;0.50;;;15.20;61.10;;;;;;5016588;28;20057;-46
2023/05/11 02:33:17;;;;;;;5.00;0.50;;;15.20;61.10;;;;;;5017308;28;20053;-49
2023/05/11 02:35:46;;;;;;;0.70;0.40;;;15.10;61.00;;;;;;5017960;28;20515;-37
2023/05/11 02:38:15;;;;;;;0.30;0.30;;;15.10;61.00;;;;;;5019062;28;20054;-37
2023/05/11 02:40:46;;;;;;;2.47;0.82;;;15.10;61.00;;;;;;5020469;28;20049;-39
2023/05/11 02:43:20;;;;;;;2.03;0.30;;;15.10;61.10;;;;;;5020563;28;20618;-40
2023/05/11 02:45:50;;;;;;;1.52;0.35;;;15.10;61.10;;;;;;5023378;28;20053;-39
2023/05/11 02:48:25;;;;;;;2.10;0.60;;;15.00;61.10;;;;;;5022413;28;20054;-48
2023/05/11 02:50:53;;;;;;;1.85;0.40;;;15.00;61.10;;;;;;5024081;28;20058;-43
2023/05/11 02:53:22;;;;;;;2.63;0.70;;;15.00;61.00;;;;;;5024159;28;20057;-49
2023/05/11 02:55:51;;;;;;;2.97;0.70;;;15.00;60.90;;;;;;5024190;28;20060;-46
2023/05/11 02:58:19;;;;;;;0.40;0.38;;;15.00;60.80;;;;;;5023901;28;20053;-49
2023/05/11 03:00:46;;;;;;;0.47;0.40;;;14.90;60.70;;;;;;5023130;28;20420;-45
2023/05/11 03:03:13;;;;;;;0.60;0.40;;;14.90;60.70;;;;;;5023835;28;20392;-42
2023/05/11 03:05:42;;;;;;;3.25;0.50;;;14.90;60.80;;;;;;5022980;28;21758;-46
2023/05/11 03:08:10;;;;;;;0.52;0.43;;;14.90;60.90;;;;;;5023926;28;20402;-49
2023/05/11 03:10:37;;;;;;;0.35;0.35;;;14.90;61.10;;;;;;5024262;28;20061;-40
2023/05/11 03:13:06;;;;;;;1.00;0.38;;;14.90;61.20;;;;;;5023125;28;20057;-38
2023/05/11 03:15:34;;;;;;;0.60;0.60;;;14.90;61.40;;;;;;5022525;28;20073;-39
2023/05/11 03:18:02;;;;;;;1.77;0.60;;;14.80;61.40;;;;;;5023441;28;20057;-39
2023/05/11 03:20:31;;;;;;;3.13;0.60;;;14.80;61.60;;;;;;5010901;28;20409;-39
2023/05/11 03:23:01;;;;;;;1.58;0.70;;;14.80;61.60;;;;;;5022381;28;20049;-38
2023/05/11 03:25:29;;;;;;;2.40;0.70;;;14.80;61.60;;;;;;5023558;28;20049;-38
2023/05/11 03:27:58;;;;;;;0.80;0.60;;;14.80;61.60;;;;;;5022157;28;20056;-38
2023/05/11 03:30:26;;;;;;;0.90;0.70;;;14.80;61.60;;;;;;5021032;28;20128;-38
2023/05/11 03:32:53;;;;;;;1.63;0.70;;;14.80;61.70;;;;;;5022320;28;21310;-41
2023/05/11 03:35:22;;;;;;;1.10;0.50;;;14.80;61.70;;;;;;5022927;28;20061;-38
2023/05/11 03:37:50;;;;;;;3.00;0.70;;;14.80;61.80;;;;;;5020177;28;20057;-38
2023/05/11 03:40:21;;;;;;;0.93;0.70;;;14.80;61.90;;;;;;5022804;28;20520;-38
2023/05/11 03:42:49;;;;;;;1.45;0.82;;;14.80;61.90;;;;;;5023698;28;20064;-38
2023/05/11 03:45:19;;;;;;;1.08;0.70;;;14.80;62.00;;;;;;5021268;28;20057;-40
2023/05/11 03:47:47;;;;;;;1.15;0.63;;;14.90;62.30;;;;;;5022615;28;20057;-40
2023/05/11 03:50:15;;;;;;;2.72;0.80;;;14.90;62.00;;;;;;5022665;28;20412;-39
2023/05/11 03:52:43;;;;;;;1.90;0.77;;;14.90;61.90;;;;;;5022576;28;20057;-39
2023/05/11 03:55:11;;;;;;;0.73;0.70;;;14.90;61.80;;;;;;5021897;28;20049;-43
2023/05/11 03:57:40;;;;;;;1.15;0.70;;;14.80;61.70;;;;;;5024015;28;20053;-38
2023/05/11 04:00:10;;;;;;;1.17;0.80;;;14.80;61.60;;;;;;5022131;28;20065;-39
2023/05/11 04:02:37;;;;;;;3.28;0.70;;;14.80;61.60;;;;;;5022174;28;20057;-38
2023/05/11 04:05:07;;;;;;;0.68;0.60;;;14.80;61.60;;;;;;5019361;28;20064;-39
2023/05/11 04:07:35;;;;;;;0.80;0.65;;;14.80;61.60;;;;;;5018106;28;20056;-38
2023/05/11 04:10:03;;;;;;;1.13;0.70;;;14.80;61.70;;;;;;5022809;28;20049;-42
2023/05/11 04:12:30;;;;;;;2.30;0.90;;;14.80;61.70;;;;;;5022513;28;20413;-38
2023/05/11 04:14:59;;;;;;;2.25;1.00;;;14.70;61.80;;;;;;5021920;28;20405;-40
2023/05/11 04:17:26;;;;;;;2.08;1.25;;;14.70;61.80;;;;;;5019764;28;20060;-38
2023/05/11 04:19:53;;;;;;;1.45;1.20;;;14.70;61.90;;;;;;5020708;28;20416;-38
2023/05/11 04:22:21;;;;;;;1.40;1.15;;;14.70;61.90;;;;;;5022328;28;20053;-38
2023/05/11 04:24:48;;;;;;;1.27;1.08;;;14.70;62.00;;;;;;5023103;28;20060;-40
2023/05/11 04:27:16;;;;;;;1.48;1.20;;;14.70;62.10;;;;;;5021046;28;20413;-40
2023/05/11 04:29:43;;;;;;;1.27;1.10;;;14.70;62.30;;;;;;5019294;28;20053;-39
2023/05/11 04:32:12;;;;;;;2.72;0.95;;;14.80;62.40;;;;;;5020550;28;20064;-44
2023/05/11 04:34:39;;;;;;;0.90;0.73;;;14.80;62.50;;;;;;5021400;28;20056;-40
2023/05/11 04:37:07;;;;;;;1.13;0.73;;;14.80;62.50;;;;;;5022815;28;20053;-39
2023/05/11 04:39:34;;;;;;;0.90;0.90;;;14.80;62.50;;;;;;5022309;28;20088;-37
2023/05/11 04:42:01;;;;;;;0.90;0.90;;;14.80;62.50;;;;;;5020816;28;20060;-42
2023/05/11 04:44:29;;;;;;;1.05;0.80;;;14.80;62.50;;;;;;5021175;28;20045;-40
2023/05/11 04:46:57;;;;;;;0.70;0.70;;;14.80;62.50;;;;;;5018304;28;20057;-38
2023/05/11 04:49:25;;;;;;;1.23;0.90;;;14.90;62.60;;;;;;5021565;28;20398;-38
2023/05/11 04:51:52;;;;;;;1.23;1.10;;;14.90;62.60;;;;;;5022046;28;20056;-39
2023/05/11 04:54:20;;;;;;;1.92;0.70;;;14.90;62.60;;;;;;5019957;28;20046;-43
2023/05/11 04:56:48;;;;;;;0.80;0.80;;;14.90;62.60;;;;;;5020268;28;20064;-39
2023/05/11 04:59:16;;;;;;;1.17;0.90;;;15.00;62.70;;;;;;5021421;28;20489;-38
2023/05/11 05:01:43;;;;;;;1.10;0.88;;;15.00;62.70;;;;;;5017746;28;20408;-40
2023/05/11 05:04:10;;;;;;;3.55;1.15;;;15.00;62.70;;;;;;5020789;28;20528;-39
2023/05/11 05:06:39;;;;;;;1.02;0.82;;;15.00;62.60;;;;;;5020499;28;20053;-38
2023/05/11 05:09:06;;;;;;;1.75;1.00;;;15.00;62.60;;;;;;5019961;28;20504;-38
2023/05/11 05:11:34;;;;;;;1.77;1.10;;;15.10;62.60;;;;;;5014336;28;20061;-38
2023/05/11 05:14:01;;;;;;;1.23;1.05;;;15.10;62.60;;;;;;5019977;28;20045;-39
2023/05/11 05:16:28;;;;;;;4.28;1.80;;;15.10;62.60;;;;;;5019077;28;20481;-38
2023/05/11 05:18:55;;;;;;;1.75;1.65;;;15.10;62.60;;;;;;5020399;28;20060;-38
2023/05/11 05:21:25;;;;;;;2.20;1.50;;;15.20;62.70;;;;;;5017766;28;20053;-38
2023/05/11 05:23:54;;;;;;;2.10;1.73;;;15.10;62.60;;;;;;5021280;28;20053;-38
2023/05/11 05:26:22;;;;;;;2.53;1.90;;;15.20;62.60;;;;;;5019155;28;20053;-40
2023/05/11 05:29:05;;;;;;;2.17;1.95;;;15.20;62.60;;;;;;5016633;28;20050;-39
2023/05/11 05:31:35;;;;;;;4.25;2.38;;;15.20;62.60;;;;;;5015692;28;20508;-40
2023/05/11 05:34:05;;;;;;;2.60;2.40;;;15.30;62.60;;;;;;5019537;28;20540;-42
2023/05/11 05:36:33;;;;;;;2.58;2.38;;;15.30;62.60;;;;;;5019725;28;20057;-38
2023/05/11 05:39:07;;;;;;;5.65;2.70;;;15.30;62.60;;;;;;5020667;28;20064;-38
2023/05/11 05:41:35;;;;;;;3.40;2.55;;;15.30;62.60;;;;;;5021525;28;20615;-41
2023/05/11 05:44:03;;;;;;;3.08;2.70;;;15.40;62.50;;;;;;5021079;28;20049;-39
2023/05/11 05:46:31;;;;;;;4.45;2.92;;;15.40;62.40;;;;;;5020136;28;20637;-38
2023/05/11 05:48:59;;;;;;;6.95;3.40;;;15.40;62.30;;;;;;5022437;28;20057;-38
2023/05/11 05:51:27;;;;;;;4.70;3.20;;;15.50;62.30;;;;;;5020828;28;20057;-40
2023/05/11 05:53:55;;;;;;;4.53;2.90;;;15.50;62.30;;;;;;5021026;28;20416;-44
2023/05/11 05:56:25;;;;;;;4.30;2.92;;;15.50;62.40;;;;;;5020903;28;20057;-38
2023/05/11 05:58:54;;;;;;;5.82;3.28;;;15.50;62.50;;;;;;5020382;28;20444;-39
2023/05/11 06:01:22;;;;;;;5.72;3.70;;;15.50;62.60;;;;;;5020691;28;20064;-39
2023/05/11 06:03:50;;;;;;;7.38;3.90;;;15.50;62.70;;;;;;5024270;28;20061;-38
2023/05/11 06:06:18;;;;;;;7.22;4.13;;;15.50;62.70;;;;;;5025056;28;20508;-38
2023/05/11 06:08:45;;;;;;;6.35;4.10;;;15.50;62.70;;;;;;5024900;28;20547;-38
2023/05/11 06:11:12;;;;;;;9.90;4.47;;;15.60;63.00;;;;;;5024121;28;20052;-38
2023/05/11 06:13:41;;;;;;;9.25;4.25;;;15.60;63.20;;;;;;5024352;28;20061;-40
2023/05/11 06:16:08;;;;;;;7.55;5.03;;;15.60;63.20;;;;;;5024082;28;20837;-39
2023/05/11 06:18:35;;;;;;;7.82;4.55;;;15.70;63.30;;;;;;5025174;28;20068;-48
2023/05/11 06:21:03;;;;;;;7.75;4.32;;;15.70;63.10;;;;;;5024141;28;20065;-47
2023/05/11 06:23:30;;;;;;;9.23;5.50;;;15.80;62.90;;;;;;5023550;28;20068;-47
2023/05/11 06:25:58;;;;;;;10.82;4.55;;;15.80;62.60;;;;;;5020333;28;20508;-44
2023/05/11 06:28:25;;;;;;;10.70;6.05;;;15.80;62.60;;;;;;5023949;28;20057;-45
2023/05/11 06:30:57;;;;;;;9.93;6.32;;;15.80;62.30;;;;;;5020651;28;20580;-45
2023/05/11 06:33:24;;;;;;;11.93;6.57;;;15.80;62.10;;;;;;5022627;28;20417;-48
2023/05/11 06:35:51;;;;;;;14.95;8.60;;;15.80;62.10;;;;;;5021762;28;20512;-45
2023/05/11 06:38:19;;;;;;;12.30;7.50;;;15.90;62.10;;;;;;5021753;28;20061;-47
2023/05/11 06:40:47;;;;;;;17.58;10.05;;;15.90;62.10;;;;;;5021119;28;20500;-43
2023/05/11 06:43:16;;;;;;;21.15;11.15;;;15.90;62.10;;;;;;5024828;28;20050;-45
2023/05/11 06:45:45;;;;;;;19.50;11.23;;;15.90;62.10;;;;;;5021907;28;20060;-44
2023/05/11 06:48:13;;;;;;;18.77;10.93;;;15.90;62.10;;;;;;5024218;28;20437;-45
2023/05/11 06:50:41;;;;;;;19.67;11.63;;;16.00;62.30;;;;;;5023968;28;20536;-44
2023/05/11 06:53:09;;;;;;;23.70;14.65;;;16.00;62.40;;;;;;5023528;28;20496;-45
2023/05/11 06:55:36;;;;;;;26.33;14.93;;;16.00;62.50;;;;;;5023965;28;20057;-44
2023/05/11 06:58:04;;;;;;;24.70;13.93;;;16.00;61.90;;;;;;5024403;28;20046;-50
2023/05/11 07:00:31;;;;;;;28.45;13.73;;;16.00;61.90;;;;;;5022220;28;20068;-48
2023/05/11 07:02:58;;;;;;;30.63;15.55;;;16.00;61.90;;;;;;5022778;28;20513;-45
2023/05/11 07:05:27;;;;;;;27.98;16.38;;;16.00;62.00;;;;;;5023784;28;20068;-47
2023/05/11 07:07:54;;;;;;;24.27;15.90;;;16.00;61.90;;;;;;5022746;28;20045;-44
2023/05/11 07:10:21;;;;;;;27.33;15.63;;;16.00;62.00;;;;;;5024648;28;20064;-46
2023/05/11 07:12:49;;;;;;;28.77;16.80;;;16.00;62.30;;;;;;5023497;28;20061;-47
2023/05/11 07:15:16;;;;;;;27.77;16.90;;;16.00;62.20;;;;;;5019463;28;20049;-45
2023/05/11 07:17:46;;;;;;;22.40;14.75;;;16.00;62.00;;;;;;5019860;28;20057;-46
2023/05/11 07:20:13;;;;;;;25.70;15.35;;;16.00;62.30;;;;;;5022694;28;20057;-46
2023/05/11 07:22:42;;;;;;;28.52;16.63;;;16.10;62.60;;;;;;5023625;28;20057;-43
2023/05/11 07:25:09;;;;;;;29.77;17.20;;;16.10;62.20;;;;;;5016242;28;20050;-46
2023/05/11 07:27:37;;;;;;;29.88;17.83;;;16.10;62.60;;;;;;5017686;28;20054;-45
2023/05/11 07:30:05;;;;;;;30.30;17.63;;;16.10;62.60;;;;;;5020684;28;20056;-46
2023/05/11 07:32:33;;;;;;;33.45;19.27;;;16.10;62.40;;;;;;5020500;28;20068;-44
2023/05/11 07:35:00;;;;;;;27.92;16.83;;;16.10;62.20;;;;;;5010028;28;20060;-47
2023/05/11 07:37:28;;;;;;;28.20;17.17;;;16.10;62.00;;;;;;5030068;28;20070;-47
2023/05/11 07:39:56;;;;;;;33.47;17.80;;;16.10;62.00;;;;;;5008736;28;20060;-44
2023/05/11 07:42:23;;;;;;;28.63;17.55;;;16.10;62.20;;;;;;5008359;28;20060;-49
2023/05/11 07:44:51;;;;;;;31.30;18.75;;;16.10;62.40;;;;;;5006538;28;20061;-45
2023/05/11 07:47:19;;;;;;;25.13;16.73;;;16.10;62.30;;;;;;5008591;28;20049;-44
2023/05/11 07:49:47;;;;;;;24.98;15.70;;;16.20;62.40;;;;;;5008579;28;20549;-44
2023/05/11 07:52:14;;;;;;;29.98;17.35;;;16.10;62.30;;;;;;5004301;28;20053;-43
2023/05/11 07:54:43;;;;;;;27.75;17.08;;;16.20;62.10;;;;;;5007748;28;20069;-43
2023/05/11 07:57:12;;;;;;;28.17;17.88;;;16.10;62.10;;;;;;5006033;28;20947;-48
2023/05/11 07:59:40;;;;;;;33.78;19.63;;;16.20;61.80;;;;;;5008265;28;20057;-47
2023/05/11 08:02:09;;;;;;;30.27;17.90;;;16.10;61.90;;;;;;5006878;28;20058;-48
2023/05/11 08:04:37;;;;;;;28.52;16.60;;;16.20;62.40;;;;;;5008480;28;20061;-45
2023/05/11 08:07:04;;;;;;;25.98;15.75;;;16.10;62.50;;;;;;5008058;28;20046;-45
2023/05/11 08:09:31;;;;;;;23.60;14.68;;;16.20;62.40;;;;;;5006913;28;20395;-46
2023/05/11 08:12:00;;;;;;;23.00;15.45;;;16.20;62.20;;;;;;5005977;28;20053;-44
2023/05/11 08:14:29;;;;;;;27.25;15.77;;;16.20;62.50;;;;;;5006669;28;20058;-43
2023/05/11 08:16:56;;;;;;;23.27;14.95;;;16.20;62.70;;;;;;5004901;28;20050;-46
2023/05/11 08:19:23;;;;;;;20.40;13.27;;;16.20;62.70;;;;;;5006418;28;20076;-47
2023/05/11 08:21:51;;;;;;;21.33;13.43;;;16.20;62.90;;;;;;5002880;28;20822;-46
2023/05/11 08:24:18;;;;;;;20.05;13.77;;;16.30;63.50;;;;;;5006441;28;20053;-45
2023/05/11 08:26:46;;;;;;;24.65;14.35;;;16.30;63.70;;;;;;5006128;28;20065;-44
2023/05/11 08:29:13;;;;;;;25.25;15.13;;;16.40;63.70;;;;;;5005990;28;20069;-43
2023/05/11 08:31:41;;;;;;;23.40;14.80;;;16.50;63.80;;;;;;5006520;28;20500;-46
2023/05/11 08:34:09;;;;;;;24.30;14.45;;;16.60;62.40;;;;;;5005203;28;20058;-47
2023/05/11 08:36:37;;;;;;;24.10;14.70;;;16.60;62.30;;;;;;5005543;28;20077;-48
2023/05/11 08:39:05;;;;;;;23.65;13.85;;;16.70;61.80;;;;;;5006310;28;20054;-45
2023/05/11 08:41:32;;;;;;;19.85;13.38;;;16.70;61.10;;;;;;5007929;28;20069;-46
2023/05/11 08:44:00;;;;;;;19.15;11.95;;;16.70;60.90;;;;;;5006648;28;20049;-49
2023/05/11 08:46:30;;;;;;;17.50;11.80;;;16.70;60.70;;;;;;5007038;28;20058;-47
2023/05/11 08:48:59;;;;;;;21.27;13.65;;;16.70;61.10;;;;;;5005916;28;20065;-48
2023/05/11 08:51:27;;;;;;;24.13;12.85;;;16.80;61.30;;;;;;5005669;28;20064;-46
2023/05/11 08:53:56;;;;;;;21.73;14.30;;;16.80;61.20;;;;;;5002603;28;20049;-48
2023/05/11 08:56:26;;;;;;;21.73;13.77;;;16.90;60.80;;;;;;5006113;28;20505;-47
2023/05/11 08:58:55;;;;;;;22.02;12.55;;;17.00;59.60;;;;;;5003700;28;20076;-43
2023/05/11 09:01:23;;;;;;;16.38;12.18;;;17.10;59.80;;;;;;5004218;28;20536;-44
2023/05/11 09:03:51;;;;;;;18.05;12.52;;;17.10;60.10;;;;;;5005443;28;20501;-46
2023/05/11 09:06:20;;;;;;;16.50;12.20;;;17.20;60.20;;;;;;5003878;28;20068;-48
2023/05/11 09:08:48;;;;;;;18.30;12.95;;;17.30;60.00;;;;;;5004830;28;20065;-47
2023/05/11 09:11:16;;;;;;;19.25;12.90;;;17.30;60.00;;;;;;5004762;28;20057;-45
2023/05/11 09:13:43;;;;;;;17.13;12.73;;;17.40;60.10;;;;;;5005876;28;20421;-44
2023/05/11 09:16:10;;;;;;;19.67;12.40;;;17.50;60.30;;;;;;5003971;28;20057;-48
2023/05/11 09:18:46;;;;;;;18.50;11.73;;;17.60;59.80;;;;;;5006186;28;20058;-45
2023/05/11 09:21:13;;;;;;;20.20;12.65;;;17.70;59.10;;;;;;5005322;28;20406;-45
2023/05/11 09:23:43;;;;;;;18.25;12.60;;;17.80;59.00;;;;;;5004978;28;20054;-45
2023/05/11 09:26:14;;;;;;;18.48;12.95;;;17.80;58.10;;;;;;5005049;28;20053;-46
2023/05/11 09:28:49;;;;;;;19.40;12.98;;;17.90;58.10;;;;;;5005869;28;20061;-51
2023/05/11 09:31:36;;;;;;;16.42;11.18;;;17.90;57.50;;;;;;5004770;28;20045;-45
2023/05/11 09:34:14;;;;;;;16.38;11.65;;;17.90;56.40;;;;;;5005078;28;20064;-47
2023/05/11 09:36:42;;;;;;;14.73;11.55;;;17.90;56.40;;;;;;5005459;28;20060;-46
2023/05/11 09:39:11;;;;;;;17.08;11.10;;;17.90;57.00;;;;;;5011116;28;20425;-45
2023/05/11 09:41:38;;;;;;;13.27;10.50;;;18.00;57.10;;;;;;5012798;28;20046;-45
2023/05/11 09:44:10;;;;;;;14.77;10.60;;;18.00;57.30;;;;;;5012138;28;20494;-45
2023/05/11 09:46:38;;;;;;;13.18;11.05;;;18.10;57.60;;;;;;5013297;28;20382;-45
2023/05/11 09:49:06;;;;;;;14.05;10.60;;;18.20;57.20;;;;;;5012259;28;20069;-43
2023/05/11 09:51:34;;;;;;;16.42;10.52;;;18.20;56.80;;;;;;5004838;28;20054;-44
2023/05/11 09:54:14;;;;;;;15.68;10.48;;;18.30;56.10;;;;;;5009636;28;20049;-46
2023/05/11 09:56:48;;;;;;;14.68;11.65;;;18.30;56.00;;;;;;5008774;28;20044;-46
2023/05/11 09:59:16;;;;;;;15.43;11.33;;;18.30;56.20;;;;;;5009659;28;20057;-44
2023/05/11 10:01:43;;;;;;;14.15;10.40;;;18.40;56.10;;;;;;5007969;28;20738;-46
2023/05/11 10:04:11;;;;;;;17.27;12.93;;;18.50;56.50;;;;;;5009438;28;20072;-47
2023/05/11 10:06:46;;;;;;;17.70;11.48;;;18.50;56.00;;;;;;5008200;28;20049;-48
2023/05/11 10:09:15;;;;;;;14.40;9.95;;;18.60;54.80;;;;;;5008842;28;20060;-46
2023/05/11 10:11:46;;;;;;;14.05;9.30;;;18.60;54.70;;;;;;5009507;28;20053;-44
2023/05/11 10:14:14;;;;;;;15.15;10.65;;;18.60;55.10;;;;;;5007756;28;20437;-44
2023/05/11 10:16:42;;;;;;;12.30;9.05;;;18.70;55.40;;;;;;5004936;28;20045;-46
2023/05/11 10:19:11;;;;;;;10.68;8.02;;;18.70;55.20;;;;;;5006588;28;20506;-44
2023/05/11 10:21:38;;;;;;;12.30;8.90;;;18.70;53.60;;;;;;5006058;28;20065;-44
2023/05/11 10:24:07;;;;;;;12.00;8.13;;;18.70;53.30;;;;;;5007371;28;21052;-47
2023/05/11 10:26:35;;;;;;;11.82;7.40;;;18.80;53.90;;;;;;5006744;28;20053;-44
2023/05/11 10:29:04;;;;;;;15.07;8.40;;;18.80;54.40;;;;;;5008265;28;20053;-47
2023/05/11 10:31:32;;;;;;;12.15;8.20;;;18.80;54.30;;;;;;5003944;28;20049;-42
2023/05/11 10:34:01;;;;;;;13.57;8.57;;;18.80;53.80;;;;;;5005894;28;20060;-48
2023/05/11 10:36:29;;;;;;;12.45;8.73;;;18.80;52.50;;;;;;5006391;28;20064;-46
2023/05/11 10:38:56;;;;;;;12.63;9.00;;;18.80;52.50;;;;;;5005742;28;20054;-47
2023/05/11 10:41:39;;;;;;;16.73;9.70;;;18.80;52.50;;;;;;5005863;28;20057;-45
2023/05/11 10:44:33;;;;;;;11.15;8.48;;;18.70;51.90;;;;;;5006885;28;20064;-46
2023/05/11 10:47:28;;;;;;;11.40;9.43;;;18.70;53.10;;;;;;5006534;28;20057;-45
2023/05/11 10:50:15;;;;;;;15.68;9.48;;;18.80;53.30;;;;;;5004932;28;20058;-45
2023/05/11 10:52:57;;;;;;;13.20;9.40;;;18.80;52.50;;;;;;5005715;28;20054;-45
2023/05/11 10:55:38;;;;;;;9.85;8.30;;;18.80;52.50;;;;;;5006487;28;20057;-49
2023/05/11 10:58:09;;;;;;;12.07;8.25;;;18.80;52.60;;;;;;5006108;28;20045;-45
2023/05/11 11:01:10;;;;;;;10.57;8.10;;;18.80;52.80;;;;;;5003269;28;20061;-45
2023/05/11 11:03:37;;;;;;;10.68;7.90;;;18.90;53.60;;;;;;5006253;28;20061;-49
2023/05/11 11:06:05;;;;;;;12.40;8.60;;;18.90;53.50;;;;;;5005049;28;20075;-48
2023/05/11 11:08:55;;;;;;;12.15;8.93;;;19.00;53.50;;;;;;5005153;28;20054;-47
2023/05/11 11:11:34;;;;;;;13.75;8.38;;;19.00;52.30;;;;;;5004287;28;20149;-45
2023/05/11 11:14:04;;;;;;;12.57;8.45;;;19.00;52.60;;;;;;5006393;28;20057;-45
2023/05/11 11:16:33;;;;;;;11.90;8.32;;;19.10;52.90;;;;;;5003308;28;20401;-45
2023/05/11 11:19:40;;;;;;;11.45;9.18;;;19.20;53.00;;;;;;5004494;28;20057;-48
2023/05/11 11:22:45;;;;;;;17.00;9.65;;;19.20;53.10;;;;;;5005235;28;20046;-43
2023/05/11 11:25:14;;;;;;;15.25;9.60;;;19.30;53.30;;;;;;5005014;28;20049;-45
2023/05/11 11:27:58;;;;;;;14.88;8.27;;;19.40;52.40;;;;;;5006261;28;20056;-46
2023/05/11 11:30:29;;;;;;;9.52;7.47;;;19.50;51.20;;;;;;5004432;28;20089;-48
2023/05/11 11:33:40;;;;;;;10.48;7.35;;;19.60;51.50;;;;;;5005735;28;20414;-43
2023/05/11 11:36:09;;;;;;;8.32;6.55;;;19.60;50.50;;;;;;4989000;28;20060;-46
2023/05/11 11:38:57;;;;;;;11.50;7.90;;;19.70;51.70;;;;;;5006113;28;20498;-47
2023/05/11 11:41:32;;;;;;;10.48;8.02;;;19.70;51.60;;;;;;5003326;28;21030;-44
2023/05/11 11:43:59;;;;;;;11.77;8.00;;;19.80;51.40;;;;;;5006325;28;20050;-45
2023/05/11 11:46:27;;;;;;;12.70;8.75;;;19.80;51.90;;;;;;5002939;28;20054;-45
2023/05/11 11:49:07;;;;;;;10.93;9.00;;;19.90;51.70;;;;;;5004648;28;20050;-48
2023/05/11 11:51:38;;;;;;;12.90;9.45;;;19.90;52.00;;;;;;5004570;28;20060;-45
2023/05/11 11:54:06;;;;;;;10.50;9.02;;;20.00;52.30;;;;;;5006202;28;20532;-48
2023/05/11 11:56:41;;;;;;;11.80;9.13;;;20.00;50.70;;;;;;5004701;28;20440;-43
2023/05/11 11:59:12;;;;;;;13.90;10.45;;;20.10;50.80;;;;;;5005076;28;20050;-47
2023/05/11 12:01:41;;;;;;;15.55;10.90;;;20.00;49.90;;;;;;5001394;28;20062;-45
2023/05/11 12:04:49;;;;;;;12.77;9.68;;;20.00;49.70;;;;;;5004980;28;20064;-49
2023/05/11 12:07:20;;;;;;;13.88;9.50;;;19.90;49.80;;;;;;5003545;28;20060;-44
2023/05/11 12:09:48;;;;;;;15.43;9.27;;;19.90;50.10;;;;;;5003036;28;20061;-46
2023/05/11 12:12:17;;;;;;;16.92;9.63;;;19.80;49.70;;;;;;5003704;28;20053;-46
2023/05/11 12:14:47;;;;;;;13.73;10.07;;;19.70;49.60;;;;;;5001845;28;20053;-47
2023/05/11 12:17:22;;;;;;;14.52;9.68;;;19.60;49.90;;;;;;5002927;28;20045;-48
2023/05/11 12:19:50;;;;;;;13.57;9.73;;;19.60;50.40;;;;;;5004066;28;20054;-50
2023/05/11 12:22:24;;;;;;;20.80;11.75;;;19.50;50.70;;;;;;5004219;28;20057;-49
2023/05/11 12:24:51;;;;;;;17.45;10.88;;;19.50;51.00;;;;;;5002382;28;20061;-44
2023/05/11 12:27:18;;;;;;;19.77;10.07;;;19.40;51.10;;;;;;5001951;28;20053;-47
2023/05/11 12:29:49;;;;;;;22.42;13.68;;;19.50;52.20;;;;;;5003085;28;20061;-50
2023/05/11 12:32:25;;;;;;;22.30;14.32;;;19.50;52.40;;;;;;5004521;28;20053;-51
2023/05/11 12:35:00;;;;;;;18.55;12.88;;;19.50;51.60;;;;;;5004701;28;20049;-55
2023/05/11 12:37:29;;;;;;;22.13;13.98;;;19.40;51.30;;;;;;5003142;28;20425;-43
2023/05/11 12:39:57;;;;;;;21.60;13.20;;;19.40;51.50;;;;;;5004138;28;20421;-48
2023/05/11 12:42:25;;;;;;;20.33;13.80;;;19.30;52.10;;;;;;5004198;28;20068;-45
2023/05/11 12:44:52;;;;;;;18.40;13.18;;;19.30;52.50;;;;;;5001446;28;20053;-44
2023/05/11 12:47:20;;;;;;;18.17;12.70;;;19.30;52.20;;;;;;5003075;28;20053;-47
2023/05/11 12:49:47;;;;;;;24.83;13.82;;;19.30;52.60;;;;;;5003923;28;20057;-49
2023/05/11 12:52:14;;;;;;;16.25;11.85;;;19.30;52.30;;;;;;5002567;28;20053;-49
2023/05/11 12:54:50;;;;;;;24.02;12.55;;;19.30;52.20;;;;;;5003412;28;20069;-47